sensor_id;sensor_type;location;lat;lon;timestamp;temperature;humidity
20372;DHT22;42924;37.564;-122.048;2022-09-03T00:01:55;30.30;99.90
20372;DHT22;42924;37.564;-122.048;2022-09-03T00:07:25;30.30;99.90
20372;DHT22;42924;37.564;-122.048;2022-09-03T00:10:05;30.60;99.90
20372;DHT22;42924;37.564;-122.048;2022-09-03T00:12:40;30.50;99.90
20372;DHT22;42924;37.564;-122.048;2022-09-03T00:15:21;30.40;99.90
20372;DHT22;42924;37.564;-122.048;2022-09-03T00:18:01;30.40;99.90
20372;DHT22;42924;37.564;-122.048;2022-09-03T00:20:45;30.20;99.90
20372;DHT22;42924;37.564;-122.048;2022-09-03T00:23:22;30.10;99.90
20372;DHT22;42924;37.564;-122.048;2022-09-03T00:28:49;30.00;99.90
20372;DHT22;42924;37.564;-122.048;2022-09-03T00:31:35;29.90;99.90
20372;DHT22;42924;37.564;-122.048;2022-09-03T00:36:56;29.90;99.90
20372;DHT22;42924;37.564;-122.048;2022-09-03T00:39:28;29.80;99.90
20372;DHT22;42924;37.564;-122.048;2022-09-03T00:57:14;29.60;99.90
20372;DHT22;42924;37.564;-122.048;2022-09-03T01:00:16;29.60;99.90
20372;DHT22;42924;37.564;-122.048;2022-09-03T01:06:23;29.50;99.90
20372;DHT22;42924;37.564;-122.048;2022-09-03T01:23:55;29.30;99.90
20372;DHT22;42924;37.564;-122.048;2022-09-03T01:29:48;29.20;99.90
20372;DHT22;42924;37.564;-122.048;2022-09-03T01:32:31;29.20;99.90
20372;DHT22;42924;37.564;-122.048;2022-09-03T01:35:13;29.20;99.90
20372;DHT22;42924;37.564;-122.048;2022-09-03T01:40:56;29.10;99.90
20372;DHT22;42924;37.564;-122.048;2022-09-03T01:44:08;29.10;99.90
20372;DHT22;42924;37.564;-122.048;2022-09-03T01:46:42;29.10;99.90
20372;DHT22;42924;37.564;-122.048;2022-09-03T01:49:33;29.00;99.90
20372;DHT22;42924;37.564;-122.048;2022-09-03T01:55:38;29.00;99.90
20372;DHT22;42924;37.564;-122.048;2022-09-03T02:00:56;28.80;99.90
20372;DHT22;42924;37.564;-122.048;2022-09-03T02:03:39;28.80;99.90
20372;DHT22;42924;37.564;-122.048;2022-09-03T02:06:11;28.80;99.90
20372;DHT22;42924;37.564;-122.048;2022-09-03T02:08:45;28.80;99.90
20372;DHT22;42924;37.564;-122.048;2022-09-03T02:11:17;28.70;99.90
20372;DHT22;42924;37.564;-122.048;2022-09-03T02:13:54;28.70;99.90
20372;DHT22;42924;37.564;-122.048;2022-09-03T02:16:30;28.70;99.90
20372;DHT22;42924;37.564;-122.048;2022-09-03T02:19:08;28.70;99.90
20372;DHT22;42924;37.564;-122.048;2022-09-03T02:21:49;28.70;99.90
20372;DHT22;42924;37.564;-122.048;2022-09-03T02:24:23;28.60;99.90
20372;DHT22;42924;37.564;-122.048;2022-09-03T02:26:58;28.50;99.90
20372;DHT22;42924;37.564;-122.048;2022-09-03T02:29:28;28.50;99.90
20372;DHT22;42924;37.564;-122.048;2022-09-03T02:32:03;28.50;99.90
20372;DHT22;42924;37.564;-122.048;2022-09-03T02:34:36;28.50;99.90
20372;DHT22;42924;37.564;-122.048;2022-09-03T02:37:17;28.40;99.90
20372;DHT22;42924;37.564;-122.048;2022-09-03T02:39:49;28.50;99.90
20372;DHT22;42924;37.564;-122.048;2022-09-03T02:42:21;28.40;99.90
20372;DHT22;42924;37.564;-122.048;2022-09-03T02:45:02;28.30;99.90
20372;DHT22;42924;37.564;-122.048;2022-09-03T02:47:37;28.30;99.90
20372;DHT22;42924;37.564;-122.048;2022-09-03T02:50:11;28.30;99.90
20372;DHT22;42924;37.564;-122.048;2022-09-03T02:52:42;28.20;99.90
20372;DHT22;42924;37.564;-122.048;2022-09-03T02:55:14;28.20;99.90
20372;DHT22;42924;37.564;-122.048;2022-09-03T02:57:47;28.20;99.90
20372;DHT22;42924;37.564;-122.048;2022-09-03T03:00:22;28.20;99.90
20372;DHT22;42924;37.564;-122.048;2022-09-03T03:02:57;28.20;99.90
20372;DHT22;42924;37.564;-122.048;2022-09-03T03:05:49;28.10;99.90
20372;DHT22;42924;37.564;-122.048;2022-09-03T03:08:26;28.10;99.90
20372;DHT22;42924;37.564;-122.048;2022-09-03T03:10:59;28.20;99.90
20372;DHT22;42924;37.564;-122.048;2022-09-03T03:13:36;28.10;99.90
20372;DHT22;42924;37.564;-122.048;2022-09-03T03:16:07;28.10;99.90
20372;DHT22;42924;37.564;-122.048;2022-09-03T03:18:38;28.00;99.90
20372;DHT22;42924;37.564;-122.048;2022-09-03T03:21:12;27.90;99.90
20372;DHT22;42924;37.564;-122.048;2022-09-03T03:23:44;27.90;99.90
20372;DHT22;42924;37.564;-122.048;2022-09-03T03:26:17;27.90;99.90
20372;DHT22;42924;37.564;-122.048;2022-09-03T03:28:49;28.00;99.90
20372;DHT22;42924;37.564;-122.048;2022-09-03T03:31:20;27.90;99.90
20372;DHT22;42924;37.564;-122.048;2022-09-03T03:33:56;27.90;99.90
20372;DHT22;42924;37.564;-122.048;2022-09-03T03:36:29;27.80;99.90
20372;DHT22;42924;37.564;-122.048;2022-09-03T03:39:02;27.80;99.90
20372;DHT22;42924;37.564;-122.048;2022-09-03T03:41:34;27.80;99.90
20372;DHT22;42924;37.564;-122.048;2022-09-03T03:44:05;27.80;99.90
20372;DHT22;42924;37.564;-122.048;2022-09-03T03:46:38;27.80;99.90
20372;DHT22;42924;37.564;-122.048;2022-09-03T03:49:13;27.80;99.90
20372;DHT22;42924;37.564;-122.048;2022-09-03T03:51:44;27.80;99.90
20372;DHT22;42924;37.564;-122.048;2022-09-03T03:54:15;27.80;99.90
20372;DHT22;42924;37.564;-122.048;2022-09-03T03:56:48;27.70;99.90
20372;DHT22;42924;37.564;-122.048;2022-09-03T03:59:23;27.70;99.90
20372;DHT22;42924;37.564;-122.048;2022-09-03T04:01:55;27.60;99.90
20372;DHT22;42924;37.564;-122.048;2022-09-03T04:04:25;27.60;99.90
20372;DHT22;42924;37.564;-122.048;2022-09-03T04:06:56;27.60;99.90
20372;DHT22;42924;37.564;-122.048;2022-09-03T04:09:28;27.60;99.90
20372;DHT22;42924;37.564;-122.048;2022-09-03T04:12:00;27.50;99.90
20372;DHT22;42924;37.564;-122.048;2022-09-03T04:14:32;27.60;99.90
20372;DHT22;42924;37.564;-122.048;2022-09-03T04:17:03;27.50;99.90
20372;DHT22;42924;37.564;-122.048;2022-09-03T04:19:33;27.50;99.90
20372;DHT22;42924;37.564;-122.048;2022-09-03T04:22:04;27.50;99.90
20372;DHT22;42924;37.564;-122.048;2022-09-03T04:24:34;27.50;99.90
20372;DHT22;42924;37.564;-122.048;2022-09-03T04:27:06;27.50;99.90
20372;DHT22;42924;37.564;-122.048;2022-09-03T04:29:38;27.40;99.90
20372;DHT22;42924;37.564;-122.048;2022-09-03T04:32:09;27.40;99.90
20372;DHT22;42924;37.564;-122.048;2022-09-03T04:34:58;27.30;99.90
20372;DHT22;42924;37.564;-122.048;2022-09-03T04:37:31;27.30;99.90
20372;DHT22;42924;37.564;-122.048;2022-09-03T04:40:05;27.30;99.90
20372;DHT22;42924;37.564;-122.048;2022-09-03T04:42:38;27.30;99.90
20372;DHT22;42924;37.564;-122.048;2022-09-03T04:45:09;27.30;99.90
20372;DHT22;42924;37.564;-122.048;2022-09-03T04:47:40;27.30;99.90
20372;DHT22;42924;37.564;-122.048;2022-09-03T04:50:12;27.30;99.90
20372;DHT22;42924;37.564;-122.048;2022-09-03T04:52:44;27.30;99.90
20372;DHT22;42924;37.564;-122.048;2022-09-03T04:55:15;27.30;99.90
20372;DHT22;42924;37.564;-122.048;2022-09-03T04:57:48;27.20;99.90
20372;DHT22;42924;37.564;-122.048;2022-09-03T05:00:20;27.20;99.90
20372;DHT22;42924;37.564;-122.048;2022-09-03T05:02:50;27.20;99.90
20372;DHT22;42924;37.564;-122.048;2022-09-03T05:05:21;27.20;99.90
20372;DHT22;42924;37.564;-122.048;2022-09-03T05:07:57;27.20;99.90
20372;DHT22;42924;37.564;-122.048;2022-09-03T05:10:30;27.20;99.90
20372;DHT22;42924;37.564;-122.048;2022-09-03T05:13:04;27.20;99.90
20372;DHT22;42924;37.564;-122.048;2022-09-03T05:15:35;27.20;99.90
20372;DHT22;42924;37.564;-122.048;2022-09-03T05:18:06;27.10;99.90
20372;DHT22;42924;37.564;-122.048;2022-09-03T05:20:38;27.10;99.90
20372;DHT22;42924;37.564;-122.048;2022-09-03T05:23:13;27.10;99.90
20372;DHT22;42924;37.564;-122.048;2022-09-03T05:25:57;27.10;99.90
20372;DHT22;42924;37.564;-122.048;2022-09-03T05:28:28;27.20;99.90
20372;DHT22;42924;37.564;-122.048;2022-09-03T05:31:05;27.10;99.90
20372;DHT22;42924;37.564;-122.048;2022-09-03T05:33:41;27.10;99.90
20372;DHT22;42924;37.564;-122.048;2022-09-03T05:36:17;27.10;99.90
20372;DHT22;42924;37.564;-122.048;2022-09-03T05:38:51;27.10;99.90
20372;DHT22;42924;37.564;-122.048;2022-09-03T05:41:30;27.10;99.90
20372;DHT22;42924;37.564;-122.048;2022-09-03T05:44:01;27.10;99.90
20372;DHT22;42924;37.564;-122.048;2022-09-03T05:46:34;27.10;99.90
20372;DHT22;42924;37.564;-122.048;2022-09-03T05:49:07;27.00;99.90
20372;DHT22;42924;37.564;-122.048;2022-09-03T05:51:38;27.00;99.90
20372;DHT22;42924;37.564;-122.048;2022-09-03T05:54:10;27.00;99.90
20372;DHT22;42924;37.564;-122.048;2022-09-03T05:56:45;27.00;99.90
20372;DHT22;42924;37.564;-122.048;2022-09-03T05:59:19;27.00;99.90
20372;DHT22;42924;37.564;-122.048;2022-09-03T06:01:50;27.00;99.90
20372;DHT22;42924;37.564;-122.048;2022-09-03T06:04:27;27.00;99.90
20372;DHT22;42924;37.564;-122.048;2022-09-03T06:07:01;27.00;99.90
20372;DHT22;42924;37.564;-122.048;2022-09-03T06:09:32;26.90;99.90
20372;DHT22;42924;37.564;-122.048;2022-09-03T06:12:10;26.90;99.90
20372;DHT22;42924;37.564;-122.048;2022-09-03T06:14:43;26.90;99.90
20372;DHT22;42924;37.564;-122.048;2022-09-03T06:17:14;26.80;99.90
20372;DHT22;42924;37.564;-122.048;2022-09-03T06:19:45;26.90;99.90
20372;DHT22;42924;37.564;-122.048;2022-09-03T06:22:16;26.90;99.90
20372;DHT22;42924;37.564;-122.048;2022-09-03T06:25:02;26.90;99.90
20372;DHT22;42924;37.564;-122.048;2022-09-03T06:27:34;26.90;99.90
20372;DHT22;42924;37.564;-122.048;2022-09-03T06:30:05;26.90;99.90
20372;DHT22;42924;37.564;-122.048;2022-09-03T06:32:43;26.80;99.90
20372;DHT22;42924;37.564;-122.048;2022-09-03T06:35:14;26.80;99.90
20372;DHT22;42924;37.564;-122.048;2022-09-03T06:37:45;26.80;99.90
20372;DHT22;42924;37.564;-122.048;2022-09-03T06:40:17;26.80;99.90
20372;DHT22;42924;37.564;-122.048;2022-09-03T06:42:57;26.70;99.90
20372;DHT22;42924;37.564;-122.048;2022-09-03T06:45:30;26.70;99.90
20372;DHT22;42924;37.564;-122.048;2022-09-03T06:48:01;26.70;99.90
20372;DHT22;42924;37.564;-122.048;2022-09-03T06:50:32;26.70;99.90
20372;DHT22;42924;37.564;-122.048;2022-09-03T06:53:02;26.70;99.90
20372;DHT22;42924;37.564;-122.048;2022-09-03T06:55:33;26.80;99.90
20372;DHT22;42924;37.564;-122.048;2022-09-03T06:58:06;26.70;99.90
20372;DHT22;42924;37.564;-122.048;2022-09-03T07:00:40;26.70;99.90
20372;DHT22;42924;37.564;-122.048;2022-09-03T07:03:19;26.70;99.90
20372;DHT22;42924;37.564;-122.048;2022-09-03T07:05:50;26.70;99.90
20372;DHT22;42924;37.564;-122.048;2022-09-03T07:08:19;26.60;99.90
20372;DHT22;42924;37.564;-122.048;2022-09-03T07:10:52;26.60;99.90
20372;DHT22;42924;37.564;-122.048;2022-09-03T07:13:21;26.60;99.90
20372;DHT22;42924;37.564;-122.048;2022-09-03T07:16:09;26.60;99.90
20372;DHT22;42924;37.564;-122.048;2022-09-03T07:18:43;26.50;99.90
20372;DHT22;42924;37.564;-122.048;2022-09-03T07:21:19;26.60;99.90
20372;DHT22;42924;37.564;-122.048;2022-09-03T07:23:52;26.60;99.90
20372;DHT22;42924;37.564;-122.048;2022-09-03T07:26:29;26.60;99.90
20372;DHT22;42924;37.564;-122.048;2022-09-03T07:29:01;26.60;99.90
20372;DHT22;42924;37.564;-122.048;2022-09-03T07:31:37;26.50;99.90
20372;DHT22;42924;37.564;-122.048;2022-09-03T07:34:10;26.50;99.90
20372;DHT22;42924;37.564;-122.048;2022-09-03T07:36:46;26.50;99.90
20372;DHT22;42924;37.564;-122.048;2022-09-03T07:39:19;26.50;99.90
20372;DHT22;42924;37.564;-122.048;2022-09-03T07:41:49;26.50;99.90
20372;DHT22;42924;37.564;-122.048;2022-09-03T07:44:21;26.50;99.90
20372;DHT22;42924;37.564;-122.048;2022-09-03T07:46:53;26.50;99.90
20372;DHT22;42924;37.564;-122.048;2022-09-03T07:49:25;26.50;99.90
20372;DHT22;42924;37.564;-122.048;2022-09-03T07:51:56;26.50;99.90
20372;DHT22;42924;37.564;-122.048;2022-09-03T07:54:26;26.50;99.90
20372;DHT22;42924;37.564;-122.048;2022-09-03T07:56:58;26.40;99.90
20372;DHT22;42924;37.564;-122.048;2022-09-03T07:59:32;26.40;99.90
20372;DHT22;42924;37.564;-122.048;2022-09-03T08:02:02;26.40;99.90
20372;DHT22;42924;37.564;-122.048;2022-09-03T08:04:34;26.40;99.90
20372;DHT22;42924;37.564;-122.048;2022-09-03T08:07:08;26.40;99.90
20372;DHT22;42924;37.564;-122.048;2022-09-03T08:09:40;26.40;99.90
20372;DHT22;42924;37.564;-122.048;2022-09-03T08:12:12;26.40;99.90
20372;DHT22;42924;37.564;-122.048;2022-09-03T08:14:43;26.40;99.90
20372;DHT22;42924;37.564;-122.048;2022-09-03T08:17:16;26.40;99.90
20372;DHT22;42924;37.564;-122.048;2022-09-03T08:19:52;26.30;99.90
20372;DHT22;42924;37.564;-122.048;2022-09-03T08:22:25;26.30;99.90
20372;DHT22;42924;37.564;-122.048;2022-09-03T08:24:56;26.30;99.90
20372;DHT22;42924;37.564;-122.048;2022-09-03T08:27:27;26.30;99.90
20372;DHT22;42924;37.564;-122.048;2022-09-03T08:30:02;26.20;99.90
20372;DHT22;42924;37.564;-122.048;2022-09-03T08:32:34;26.20;99.90
20372;DHT22;42924;37.564;-122.048;2022-09-03T08:35:06;26.10;99.90
20372;DHT22;42924;37.564;-122.048;2022-09-03T08:37:38;26.10;99.90
20372;DHT22;42924;37.564;-122.048;2022-09-03T08:40:12;26.00;99.90
20372;DHT22;42924;37.564;-122.048;2022-09-03T08:45:35;26.00;99.90
20372;DHT22;42924;37.564;-122.048;2022-09-03T08:48:13;26.00;99.90
20372;DHT22;42924;37.564;-122.048;2022-09-03T08:50:55;26.00;99.90
20372;DHT22;42924;37.564;-122.048;2022-09-03T08:56:10;26.00;99.90
20372;DHT22;42924;37.564;-122.048;2022-09-03T08:58:41;25.90;99.90
20372;DHT22;42924;37.564;-122.048;2022-09-03T09:01:42;25.90;99.90
20372;DHT22;42924;37.564;-122.048;2022-09-03T09:04:25;26.00;99.90
20372;DHT22;42924;37.564;-122.048;2022-09-03T09:10:32;26.00;99.90
20372;DHT22;42924;37.564;-122.048;2022-09-03T09:15:44;25.90;99.90
20372;DHT22;42924;37.564;-122.048;2022-09-03T09:18:43;25.90;99.90
20372;DHT22;42924;37.564;-122.048;2022-09-03T09:21:30;25.80;99.90
20372;DHT22;42924;37.564;-122.048;2022-09-03T09:24:09;25.80;99.90
20372;DHT22;42924;37.564;-122.048;2022-09-03T09:26:41;25.90;99.90
20372;DHT22;42924;37.564;-122.048;2022-09-03T09:29:12;25.90;99.90
20372;DHT22;42924;37.564;-122.048;2022-09-03T09:31:46;25.80;99.90
20372;DHT22;42924;37.564;-122.048;2022-09-03T09:34:16;25.80;99.90
20372;DHT22;42924;37.564;-122.048;2022-09-03T09:36:55;25.80;99.90
20372;DHT22;42924;37.564;-122.048;2022-09-03T09:39:26;25.80;99.90
20372;DHT22;42924;37.564;-122.048;2022-09-03T09:42:11;25.80;99.90
20372;DHT22;42924;37.564;-122.048;2022-09-03T09:44:43;25.80;99.90
20372;DHT22;42924;37.564;-122.048;2022-09-03T09:47:30;25.80;99.90
20372;DHT22;42924;37.564;-122.048;2022-09-03T09:50:16;25.80;99.90
20372;DHT22;42924;37.564;-122.048;2022-09-03T09:53:02;25.80;99.90
20372;DHT22;42924;37.564;-122.048;2022-09-03T09:55:50;25.80;99.90
20372;DHT22;42924;37.564;-122.048;2022-09-03T09:58:25;25.80;99.90
20372;DHT22;42924;37.564;-122.048;2022-09-03T10:01:10;25.80;99.90
20372;DHT22;42924;37.564;-122.048;2022-09-03T10:03:53;25.70;99.90
20372;DHT22;42924;37.564;-122.048;2022-09-03T10:06:29;25.70;99.90
20372;DHT22;42924;37.564;-122.048;2022-09-03T10:09:19;25.80;99.90
20372;DHT22;42924;37.564;-122.048;2022-09-03T10:12:25;25.70;99.90
20372;DHT22;42924;37.564;-122.048;2022-09-03T10:15:10;25.70;99.90
20372;DHT22;42924;37.564;-122.048;2022-09-03T10:23:24;25.70;99.90
20372;DHT22;42924;37.564;-122.048;2022-09-03T10:26:21;25.70;99.90
20372;DHT22;42924;37.564;-122.048;2022-09-03T10:29:02;25.70;99.90
20372;DHT22;42924;37.564;-122.048;2022-09-03T10:32:21;25.70;99.90
20372;DHT22;42924;37.564;-122.048;2022-09-03T10:34:58;25.70;99.90
20372;DHT22;42924;37.564;-122.048;2022-09-03T10:37:52;25.70;99.90
20372;DHT22;42924;37.564;-122.048;2022-09-03T10:40:59;25.60;99.90
20372;DHT22;42924;37.564;-122.048;2022-09-03T10:44:03;25.60;99.90
20372;DHT22;42924;37.564;-122.048;2022-09-03T11:00:09;25.60;99.90
20372;DHT22;42924;37.564;-122.048;2022-09-03T11:03:04;25.50;99.90
20372;DHT22;42924;37.564;-122.048;2022-09-03T11:05:54;25.60;99.90
20372;DHT22;42924;37.564;-122.048;2022-09-03T11:11:31;25.50;99.90
20372;DHT22;42924;37.564;-122.048;2022-09-03T11:14:05;25.50;99.90
20372;DHT22;42924;37.564;-122.048;2022-09-03T11:16:46;25.50;99.90
20372;DHT22;42924;37.564;-122.048;2022-09-03T11:19:21;25.50;99.90
20372;DHT22;42924;37.564;-122.048;2022-09-03T11:21:55;25.50;99.90
20372;DHT22;42924;37.564;-122.048;2022-09-03T11:24:28;25.50;99.90
20372;DHT22;42924;37.564;-122.048;2022-09-03T11:29:42;25.50;99.90
20372;DHT22;42924;37.564;-122.048;2022-09-03T11:36:00;25.40;99.90
20372;DHT22;42924;37.564;-122.048;2022-09-03T11:38:18;25.40;99.90
20372;DHT22;42924;37.564;-122.048;2022-09-03T11:41:13;25.40;99.90
20372;DHT22;42924;37.564;-122.048;2022-09-03T11:43:46;25.40;99.90
20372;DHT22;42924;37.564;-122.048;2022-09-03T11:48:55;25.40;99.90
20372;DHT22;42924;37.564;-122.048;2022-09-03T11:54:04;25.30;99.90
20372;DHT22;42924;37.564;-122.048;2022-09-03T11:56:41;25.40;99.90
20372;DHT22;42924;37.564;-122.048;2022-09-03T12:19:24;25.30;99.90
20372;DHT22;42924;37.564;-122.048;2022-09-03T12:21:59;25.30;99.90
20372;DHT22;42924;37.564;-122.048;2022-09-03T12:24:33;25.30;99.90
20372;DHT22;42924;37.564;-122.048;2022-09-03T12:27:09;25.30;99.90
20372;DHT22;42924;37.564;-122.048;2022-09-03T12:29:55;25.40;99.90
20372;DHT22;42924;37.564;-122.048;2022-09-03T12:32:31;25.40;99.90
20372;DHT22;42924;37.564;-122.048;2022-09-03T12:35:18;25.30;99.90
20372;DHT22;42924;37.564;-122.048;2022-09-03T12:38:12;25.30;99.90
20372;DHT22;42924;37.564;-122.048;2022-09-03T12:40:46;25.30;99.90
20372;DHT22;42924;37.564;-122.048;2022-09-03T12:43:37;25.30;99.90
20372;DHT22;42924;37.564;-122.048;2022-09-03T12:46:14;25.30;99.90
20372;DHT22;42924;37.564;-122.048;2022-09-03T12:48:59;25.30;99.90
20372;DHT22;42924;37.564;-122.048;2022-09-03T12:52:07;25.40;99.90
20372;DHT22;42924;37.564;-122.048;2022-09-03T12:57:50;25.30;99.90
20372;DHT22;42924;37.564;-122.048;2022-09-03T13:00:32;25.30;99.90
20372;DHT22;42924;37.564;-122.048;2022-09-03T13:03:21;25.40;99.90
20372;DHT22;42924;37.564;-122.048;2022-09-03T13:06:02;25.40;99.90
20372;DHT22;42924;37.564;-122.048;2022-09-03T13:09:01;25.40;99.90
20372;DHT22;42924;37.564;-122.048;2022-09-03T13:11:35;25.40;99.90
20372;DHT22;42924;37.564;-122.048;2022-09-03T13:14:45;25.30;99.90
20372;DHT22;42924;37.564;-122.048;2022-09-03T13:17:47;25.40;99.90
20372;DHT22;42924;37.564;-122.048;2022-09-03T13:20:43;25.50;99.90
20372;DHT22;42924;37.564;-122.048;2022-09-03T13:29:25;25.60;99.90
20372;DHT22;42924;37.564;-122.048;2022-09-03T13:32:07;25.60;99.90
20372;DHT22;42924;37.564;-122.048;2022-09-03T13:35:01;25.70;99.90
20372;DHT22;42924;37.564;-122.048;2022-09-03T13:46:07;25.80;99.90
20372;DHT22;42924;37.564;-122.048;2022-09-03T13:48:43;25.80;99.90
20372;DHT22;42924;37.564;-122.048;2022-09-03T13:51:48;25.80;99.90
20372;DHT22;42924;37.564;-122.048;2022-09-03T13:57:37;25.90;99.90
20372;DHT22;42924;37.564;-122.048;2022-09-03T14:00:11;26.00;99.90
20372;DHT22;42924;37.564;-122.048;2022-09-03T14:08:31;26.10;99.90
20372;DHT22;42924;37.564;-122.048;2022-09-03T14:14:36;26.10;99.90
20372;DHT22;42924;37.564;-122.048;2022-09-03T14:17:29;26.00;99.90
20372;DHT22;42924;37.564;-122.048;2022-09-03T14:23:04;26.10;99.90
20372;DHT22;42924;37.564;-122.048;2022-09-03T14:25:36;26.10;99.90
20372;DHT22;42924;37.564;-122.048;2022-09-03T14:31:10;26.20;99.90
20372;DHT22;42924;37.564;-122.048;2022-09-03T14:37:22;26.20;99.90
20372;DHT22;42924;37.564;-122.048;2022-09-03T14:45:55;26.20;99.90
20372;DHT22;42924;37.564;-122.048;2022-09-03T14:51:30;26.20;99.90
20372;DHT22;42924;37.564;-122.048;2022-09-03T14:59:53;26.20;99.90
20372;DHT22;42924;37.564;-122.048;2022-09-03T15:02:45;26.30;99.90
20372;DHT22;42924;37.564;-122.048;2022-09-03T15:05:41;26.30;99.90
20372;DHT22;42924;37.564;-122.048;2022-09-03T15:08:41;26.40;99.90
20372;DHT22;42924;37.564;-122.048;2022-09-03T15:11:23;26.40;99.90
20372;DHT22;42924;37.564;-122.048;2022-09-03T15:14:09;26.40;99.90
20372;DHT22;42924;37.564;-122.048;2022-09-03T15:16:52;26.30;99.90
20372;DHT22;42924;37.564;-122.048;2022-09-03T15:31:26;26.70;99.90
20372;DHT22;42924;37.564;-122.048;2022-09-03T15:36:54;26.80;99.90
20372;DHT22;42924;37.564;-122.048;2022-09-03T15:39:32;26.90;99.90
20372;DHT22;42924;37.564;-122.048;2022-09-03T15:42:27;27.10;99.90
20372;DHT22;42924;37.564;-122.048;2022-09-03T15:45:14;27.10;99.90
20372;DHT22;42924;37.564;-122.048;2022-09-03T15:47:56;27.20;99.90
20372;DHT22;42924;37.564;-122.048;2022-09-03T15:53:33;27.00;99.90
20372;DHT22;42924;37.564;-122.048;2022-09-03T16:07:06;27.60;99.90
20372;DHT22;42924;37.564;-122.048;2022-09-03T16:13:06;27.80;99.90
20372;DHT22;42924;37.564;-122.048;2022-09-03T16:16:07;27.80;99.90
20372;DHT22;42924;37.564;-122.048;2022-09-03T16:19:27;27.60;99.90
20372;DHT22;42924;37.564;-122.048;2022-09-03T16:24:52;27.80;99.90
20372;DHT22;42924;37.564;-122.048;2022-09-03T16:27:29;27.90;99.90
20372;DHT22;42924;37.564;-122.048;2022-09-03T16:30:21;27.90;99.90
20372;DHT22;42924;37.564;-122.048;2022-09-03T16:38:49;28.00;99.90
20372;DHT22;42924;37.564;-122.048;2022-09-03T16:47:38;28.10;99.90
20372;DHT22;42924;37.564;-122.048;2022-09-03T16:50:37;28.20;99.90
20372;DHT22;42924;37.564;-122.048;2022-09-03T16:54:04;28.10;99.90
20372;DHT22;42924;37.564;-122.048;2022-09-03T16:56:40;28.00;99.90
20372;DHT22;42924;37.564;-122.048;2022-09-03T16:59:35;27.90;99.90
20372;DHT22;42924;37.564;-122.048;2022-09-03T17:05:25;28.20;99.90
20372;DHT22;42924;37.564;-122.048;2022-09-03T17:08:19;28.20;99.90
20372;DHT22;42924;37.564;-122.048;2022-09-03T17:13:50;28.30;99.90
20372;DHT22;42924;37.564;-122.048;2022-09-03T17:16:45;28.30;99.90
20372;DHT22;42924;37.564;-122.048;2022-09-03T17:19:25;28.30;99.90
20372;DHT22;42924;37.564;-122.048;2022-09-03T17:24:52;28.30;99.90
20372;DHT22;42924;37.564;-122.048;2022-09-03T17:27:48;28.30;99.90
20372;DHT22;42924;37.564;-122.048;2022-09-03T17:36:16;28.40;99.90
20372;DHT22;42924;37.564;-122.048;2022-09-03T17:41:53;28.50;99.90
20372;DHT22;42924;37.564;-122.048;2022-09-03T17:50:17;28.60;99.90
20372;DHT22;42924;37.564;-122.048;2022-09-03T17:59:01;28.60;99.90
20372;DHT22;42924;37.564;-122.048;2022-09-03T18:01:37;28.50;99.90
20372;DHT22;42924;37.564;-122.048;2022-09-03T18:07:43;28.50;99.90
20372;DHT22;42924;37.564;-122.048;2022-09-03T18:10:22;28.50;99.90
20372;DHT22;42924;37.564;-122.048;2022-09-03T18:13:05;28.40;99.90
20372;DHT22;42924;37.564;-122.048;2022-09-03T18:16:04;28.50;99.90
20372;DHT22;42924;37.564;-122.048;2022-09-03T18:18:41;28.30;99.90
20372;DHT22;42924;37.564;-122.048;2022-09-03T18:21:24;28.30;99.90
20372;DHT22;42924;37.564;-122.048;2022-09-03T18:24:55;28.10;99.90
20372;DHT22;42924;37.564;-122.048;2022-09-03T18:27:45;28.00;99.90
20372;DHT22;42924;37.564;-122.048;2022-09-03T18:30:36;28.00;99.90
20372;DHT22;42924;37.564;-122.048;2022-09-03T18:33:26;27.90;99.90
20372;DHT22;42924;37.564;-122.048;2022-09-03T18:36:14;27.90;99.90
20372;DHT22;42924;37.564;-122.048;2022-09-03T18:39:15;28.00;99.90
20372;DHT22;42924;37.564;-122.048;2022-09-03T18:49:00;27.90;99.90
20372;DHT22;42924;37.564;-122.048;2022-09-03T18:55:53;27.80;99.90
20372;DHT22;42924;37.564;-122.048;2022-09-03T18:58:57;27.80;99.90
20372;DHT22;42924;37.564;-122.048;2022-09-03T19:01:47;27.60;99.90
20372;DHT22;42924;37.564;-122.048;2022-09-03T19:08:01;27.50;99.90
20372;DHT22;42924;37.564;-122.048;2022-09-03T19:23:51;27.40;99.90
20372;DHT22;42924;37.564;-122.048;2022-09-03T19:30:15;27.30;99.90
20372;DHT22;42924;37.564;-122.048;2022-09-03T19:33:16;27.30;99.90
20372;DHT22;42924;37.564;-122.048;2022-09-03T19:36:32;27.20;99.90
20372;DHT22;42924;37.564;-122.048;2022-09-03T19:39:50;26.60;99.90
20372;DHT22;42924;37.564;-122.048;2022-09-03T19:43:04;25.90;99.90
20372;DHT22;42924;37.564;-122.048;2022-09-03T19:52:48;24.50;99.90
20372;DHT22;42924;37.564;-122.048;2022-09-03T19:55:44;24.40;99.90
20372;DHT22;42924;37.564;-122.048;2022-09-03T19:58:36;24.00;99.90
20372;DHT22;42924;37.564;-122.048;2022-09-03T20:01:36;23.90;99.90
20372;DHT22;42924;37.564;-122.048;2022-09-03T20:04:38;23.70;99.90
20372;DHT22;42924;37.564;-122.048;2022-09-03T20:07:28;23.60;99.90
20372;DHT22;42924;37.564;-122.048;2022-09-03T20:10:17;23.50;99.90
20372;DHT22;42924;37.564;-122.048;2022-09-03T20:13:09;23.50;99.90
20372;DHT22;42924;37.564;-122.048;2022-09-03T20:18:37;23.60;99.90
20372;DHT22;42924;37.564;-122.048;2022-09-03T20:24:02;23.50;99.90
20372;DHT22;42924;37.564;-122.048;2022-09-03T20:49:52;23.90;99.90
20372;DHT22;42924;37.564;-122.048;2022-09-03T20:55:47;23.90;99.90
20372;DHT22;42924;37.564;-122.048;2022-09-03T21:03:26;23.90;99.90
20372;DHT22;42924;37.564;-122.048;2022-09-03T21:06:10;24.10;99.90
20372;DHT22;42924;37.564;-122.048;2022-09-03T21:09:17;24.20;99.90
20372;DHT22;42924;37.564;-122.048;2022-09-03T21:17:46;24.10;99.90
20372;DHT22;42924;37.564;-122.048;2022-09-03T21:20:35;24.10;99.90
20372;DHT22;42924;37.564;-122.048;2022-09-03T21:23:28;24.30;99.90
20372;DHT22;42924;37.564;-122.048;2022-09-03T21:26:30;24.30;99.90
20372;DHT22;42924;37.564;-122.048;2022-09-03T21:29:12;24.30;99.90
20372;DHT22;42924;37.564;-122.048;2022-09-03T21:32:14;24.20;99.90
20372;DHT22;42924;37.564;-122.048;2022-09-03T21:37:54;24.30;99.90
20372;DHT22;42924;37.564;-122.048;2022-09-03T21:40:29;24.30;99.90
20372;DHT22;42924;37.564;-122.048;2022-09-03T21:46:18;24.50;99.90